createdAt,value
2018-07-26T00:00:21.635Z,82.10
2018-07-26T00:02:49.691Z,83.00
2018-07-26T00:05:17.755Z,83.40
2018-07-26T00:07:52.452Z,83.40
2018-07-26T00:10:20.528Z,83.50
2018-07-26T00:12:48.612Z,82.90
2018-07-26T00:15:16.728Z,83.50
2018-07-26T00:17:44.788Z,83.50
2018-07-26T00:20:12.868Z,83.50
2018-07-26T00:22:40.964Z,84.10
2018-07-26T00:25:09.009Z,84.30
2018-07-26T00:28:40.347Z,84.30
2018-07-26T00:31:08.442Z,84.50
2018-07-26T00:33:36.524Z,84.50
2018-07-26T00:36:04.599Z,84.70
2018-07-26T00:38:32.683Z,85.50
2018-07-26T00:41:00.844Z,85.90
2018-07-26T00:43:28.911Z,86.00
2018-07-26T00:45:57.043Z,84.90
2018-07-26T00:48:25.203Z,85.10
2018-07-26T00:50:53.272Z,85.60
2018-07-26T00:53:21.376Z,85.10
2018-07-26T00:55:49.465Z,85.40
2018-07-26T00:58:17.589Z,85.90
2018-07-26T01:00:46.623Z,85.60
2018-07-26T01:03:14.683Z,85.80
2018-07-26T01:05:42.755Z,85.50
2018-07-26T01:08:10.835Z,84.70
2018-07-26T01:10:38.898Z,85.10
2018-07-26T01:13:06.979Z,85.50
2018-07-26T01:15:35.058Z,85.40
2018-07-26T01:18:03.104Z,86.00
2018-07-26T01:20:31.155Z,86.40
2018-07-26T01:22:59.236Z,86.10
2018-07-26T01:25:27.291Z,85.20
2018-07-26T01:27:55.387Z,84.70
2018-07-26T01:30:23.435Z,85.10
2018-07-26T01:32:51.505Z,85.20
2018-07-26T01:35:19.609Z,85.20
2018-07-26T01:37:47.687Z,85.50
2018-07-26T01:40:15.759Z,86.10
2018-07-26T01:43:58.974Z,86.00
2018-07-26T01:46:27.516Z,85.60
2018-07-26T01:48:55.607Z,85.70
2018-07-26T01:51:23.693Z,85.90
2018-07-26T01:53:51.751Z,85.70
2018-07-26T01:56:19.835Z,85.80
2018-07-26T01:58:47.910Z,86.20
2018-07-26T02:01:15.988Z,86.20
2018-07-26T02:03:44.074Z,86.50
2018-07-26T02:06:12.139Z,85.40
2018-07-26T02:08:40.208Z,85.10
2018-07-26T02:11:08.300Z,85.50
2018-07-26T02:13:36.420Z,85.10
2018-07-26T02:16:04.495Z,85.30
2018-07-26T02:18:32.593Z,85.80
2018-07-26T02:21:00.663Z,86.70
2018-07-26T02:23:28.751Z,86.90
2018-07-26T02:25:56.845Z,87.00
2018-07-26T02:28:24.933Z,87.10
2018-07-26T02:30:53.086Z,87.70
2018-07-26T02:33:21.142Z,86.50
2018-07-26T02:35:49.223Z,86.10
2018-07-26T02:38:17.294Z,86.50
2018-07-26T02:40:45.399Z,87.20
2018-07-26T02:43:13.454Z,87.90
2018-07-26T02:45:41.571Z,87.90
2018-07-26T02:48:09.786Z,87.80
2018-07-26T02:50:37.872Z,87.20
2018-07-26T02:53:06.199Z,86.40
2018-07-26T02:55:34.327Z,86.20
2018-07-26T02:58:02.386Z,86.20
2018-07-26T03:00:30.461Z,86.20
2018-07-26T03:02:58.527Z,86.40
2018-07-26T03:05:26.639Z,86.40
2018-07-26T03:07:54.720Z,85.90
2018-07-26T03:10:22.819Z,85.30
2018-07-26T03:12:50.919Z,86.10
2018-07-26T03:15:18.994Z,86.50
2018-07-26T03:17:47.052Z,86.70
2018-07-26T03:20:15.150Z,87.00
2018-07-26T03:22:43.251Z,87.40
2018-07-26T03:25:11.355Z,87.30
2018-07-26T03:27:39.436Z,87.50
2018-07-26T03:30:07.959Z,88.10
2018-07-26T03:32:36.008Z,88.80
2018-07-26T03:35:04.123Z,87.90
2018-07-26T03:37:32.227Z,86.90
2018-07-26T03:40:03.255Z,86.90
2018-07-26T03:42:31.332Z,86.70
2018-07-26T03:44:59.424Z,86.10
2018-07-26T03:47:27.516Z,85.40
2018-07-26T03:49:55.631Z,85.90
2018-07-26T03:52:23.731Z,86.20
2018-07-26T03:54:51.812Z,85.50
2018-07-26T03:57:19.928Z,85.20
2018-07-26T04:01:12.533Z,85.80
2018-07-26T04:03:40.616Z,85.90
2018-07-26T04:06:08.731Z,86.40
2018-07-26T04:08:36.816Z,86.60
2018-07-26T04:11:04.884Z,86.00
2018-07-26T04:13:32.979Z,85.70
2018-07-26T04:16:01.102Z,85.10
2018-07-26T04:18:29.182Z,84.70
2018-07-26T04:20:57.343Z,83.00
2018-07-26T04:23:25.459Z,81.70
2018-07-26T04:25:53.519Z,81.60
2018-07-26T04:28:21.606Z,81.30
2018-07-26T04:30:49.676Z,80.50
2018-07-26T04:33:17.780Z,79.80
2018-07-26T04:35:45.851Z,79.20
2018-07-26T04:38:13.967Z,79.60
2018-07-26T04:40:42.067Z,80.50
2018-07-26T04:43:10.131Z,81.00
2018-07-26T04:45:38.200Z,81.10
2018-07-26T04:48:06.271Z,80.60
2018-07-26T04:50:34.351Z,79.70
2018-07-26T04:53:02.417Z,79.00
2018-07-26T04:55:30.507Z,77.20
2018-07-26T04:57:58.584Z,76.40
2018-07-26T05:00:27.703Z,75.90
2018-07-26T05:02:55.815Z,75.00
2018-07-26T05:05:24.107Z,72.80
2018-07-26T05:07:52.288Z,71.00
2018-07-26T05:10:20.713Z,69.30
2018-07-26T05:12:48.779Z,66.70
2018-07-26T05:15:16.880Z,65.80
2018-07-26T05:17:44.965Z,64.20
2018-07-26T05:20:13.028Z,64.60
2018-07-26T05:22:41.107Z,63.40
2018-07-26T05:25:09.202Z,61.40
2018-07-26T05:27:37.446Z,59.40
2018-07-26T05:30:05.562Z,58.10
2018-07-26T05:32:33.678Z,58.50
2018-07-26T05:35:01.750Z,56.60
2018-07-26T05:37:29.871Z,54.80
2018-07-26T05:39:58.014Z,52.80
2018-07-26T05:42:26.076Z,51.90
2018-07-26T05:44:54.128Z,49.30
2018-07-26T05:47:22.275Z,46.70
2018-07-26T05:49:50.369Z,44.80
2018-07-26T05:54:48.700Z,45.40
2018-07-26T05:57:16.779Z,43.10
2018-07-26T05:59:45.008Z,46.40
2018-07-26T06:02:13.279Z,43.70
2018-07-26T06:04:41.341Z,41.10
2018-07-26T06:07:09.452Z,40.00
2018-07-26T06:09:37.580Z,41.10
2018-07-26T06:12:05.706Z,40.80
2018-07-26T06:14:33.768Z,39.10
2018-07-26T06:17:01.837Z,37.20
2018-07-26T06:19:29.934Z,37.80
2018-07-26T06:21:58.028Z,39.60
2018-07-26T06:24:26.116Z,41.30
2018-07-26T06:26:54.270Z,38.70
2018-07-26T06:29:22.479Z,38.10
2018-07-26T06:31:50.552Z,34.60
2018-07-26T06:34:18.635Z,36.20
2018-07-26T06:36:46.723Z,36.20
2018-07-26T06:39:14.820Z,34.40
2018-07-26T06:41:43.761Z,33.70
2018-07-26T06:44:12.948Z,32.90
2018-07-26T06:46:41.024Z,30.70
2018-07-26T06:49:09.427Z,27.80
2018-07-26T06:51:37.995Z,24.50
2018-07-26T06:54:06.120Z,22.90
2018-07-26T06:56:34.217Z,19.90
2018-07-26T06:59:02.300Z,20.00
2018-07-26T07:01:30.363Z,16.70
2018-07-26T07:03:58.476Z,16.30
2018-07-26T07:06:26.607Z,13.90
2018-07-26T07:08:54.675Z,12.30
2018-07-26T07:11:22.742Z,10.60
2018-07-26T07:13:50.815Z,10.70
2018-07-26T07:16:18.899Z,9.30
2018-07-26T07:18:46.968Z,9.80
2018-07-26T07:21:15.251Z,8.60
2018-07-26T07:23:43.359Z,9.50
2018-07-26T07:26:11.448Z,8.30
2018-07-26T07:28:39.552Z,7.30
2018-07-26T07:31:07.625Z,7.30
2018-07-26T07:33:35.680Z,6.80
2018-07-26T07:36:03.742Z,6.50
2018-07-26T07:38:31.828Z,6.80
2018-07-26T07:40:59.911Z,6.30
2018-07-26T07:43:27.979Z,5.40
2018-07-26T07:45:56.027Z,4.90
2018-07-26T07:48:24.130Z,4.70
2018-07-26T07:50:54.203Z,3.90
2018-07-26T07:53:22.295Z,2.70
2018-07-26T07:55:50.363Z,3.00
2018-07-26T07:58:19.405Z,3.00
2018-07-26T08:00:47.565Z,2.40
2018-07-26T08:03:15.611Z,3.00
2018-07-26T08:05:43.748Z,2.30
2018-07-26T08:08:11.819Z,1.60
2018-07-26T08:10:39.885Z,1.00
2018-07-26T08:13:08.178Z,1.20
2018-07-26T08:15:36.251Z,2.00
2018-07-26T08:18:04.340Z,1.10
2018-07-26T08:20:32.407Z,1.00
2018-07-26T08:23:00.514Z,1.00
2018-07-26T08:25:28.563Z,1.00
2018-07-26T08:27:56.624Z,1.00
2018-07-26T08:30:24.723Z,1.00
2018-07-26T08:32:52.786Z,1.00
2018-07-26T08:35:20.848Z,1.00
2018-07-26T08:37:48.898Z,1.00
2018-07-26T08:40:16.996Z,1.00
2018-07-26T08:42:45.067Z,1.00
2018-07-26T08:45:13.165Z,1.00
2018-07-26T08:47:41.254Z,1.00
2018-07-26T08:50:09.723Z,1.00
2018-07-26T08:52:37.783Z,1.00
2018-07-26T08:55:05.969Z,1.00
2018-07-26T08:57:34.095Z,1.00
2018-07-26T09:00:02.176Z,1.00
2018-07-26T09:02:30.418Z,1.00
2018-07-26T09:04:58.540Z,1.00
2018-07-26T09:07:26.615Z,1.00
2018-07-26T09:09:54.712Z,1.00
2018-07-26T09:12:22.838Z,1.00
2018-07-26T09:14:50.887Z,1.00
2018-07-26T09:17:19.015Z,1.00
2018-07-26T09:19:47.101Z,1.00
2018-07-26T09:22:15.138Z,1.00
2018-07-26T09:24:43.711Z,1.00
2018-07-26T09:27:13.088Z,1.00
2018-07-26T09:29:41.316Z,1.00
2018-07-26T09:32:09.386Z,1.00
2018-07-26T09:34:37.443Z,1.00
2018-07-26T09:37:05.544Z,1.00
2018-07-26T09:39:33.620Z,1.00
2018-07-26T09:42:01.733Z,1.00
2018-07-26T09:44:29.814Z,1.00
2018-07-26T09:46:57.896Z,1.00
2018-07-26T09:51:53.879Z,1.00
2018-07-26T09:54:21.948Z,1.00
2018-07-26T09:56:50.075Z,1.00
2018-07-26T09:59:18.223Z,1.00
2018-07-26T10:01:46.280Z,1.00
2018-07-26T10:04:14.334Z,1.00
2018-07-26T10:06:42.406Z,1.00
2018-07-26T10:09:11.770Z,1.00
2018-07-26T10:11:40.547Z,1.00
2018-07-26T10:14:08.673Z,1.00
2018-07-26T10:16:36.707Z,1.00
2018-07-26T10:19:04.815Z,1.00
2018-07-26T10:21:32.942Z,1.00
2018-07-26T10:24:01.015Z,1.00
2018-07-26T10:26:29.076Z,1.00
2018-07-26T10:28:57.151Z,1.00
2018-07-26T11:53:22.989Z,1.00
2018-07-26T11:58:18.970Z,1.00
2018-07-26T12:00:47.083Z,1.00
2018-07-26T12:03:15.187Z,1.00
2018-07-26T12:05:43.271Z,1.00
2018-07-26T12:08:11.390Z,1.00
2018-07-26T12:10:39.527Z,1.00
2018-07-26T12:13:07.700Z,1.00
2018-07-26T12:15:35.823Z,1.00
2018-07-26T12:18:03.904Z,1.00
2018-07-26T12:20:32.863Z,1.00
2018-07-26T12:23:00.994Z,1.00
2018-07-26T12:25:29.051Z,1.00
2018-07-26T12:27:57.148Z,1.00
2018-07-26T12:30:25.270Z,1.00
2018-07-26T12:32:53.384Z,1.00
2018-07-26T12:35:21.453Z,1.00
2018-07-26T12:37:49.512Z,1.00
2018-07-26T12:40:17.797Z,1.00
2018-07-26T12:42:45.879Z,1.00
2018-07-26T12:45:13.927Z,1.00
2018-07-26T12:47:42.223Z,1.00
2018-07-26T12:50:10.316Z,1.90
2018-07-26T12:52:38.999Z,2.40
2018-07-26T12:55:07.081Z,2.20
2018-07-26T12:57:35.167Z,2.50
2018-07-26T13:00:03.272Z,2.10
2018-07-26T13:02:31.364Z,1.80
2018-07-26T13:04:59.589Z,1.40
2018-07-26T13:07:27.663Z,1.00
2018-07-26T13:09:55.719Z,1.00
2018-07-26T13:12:23.873Z,1.00
2018-07-26T13:14:51.984Z,1.00
2018-07-26T13:17:20.016Z,1.00
2018-07-26T13:19:48.386Z,1.00
2018-07-26T13:22:16.463Z,1.00
2018-07-26T13:24:44.508Z,1.00
2018-07-26T13:27:12.620Z,1.50
2018-07-26T13:29:40.653Z,1.60
2018-07-26T13:32:09.253Z,1.40
2018-07-26T13:34:37.324Z,2.10
2018-07-26T13:37:05.415Z,2.10
2018-07-26T13:39:33.499Z,1.30
2018-07-26T13:42:01.582Z,1.00
2018-07-26T13:44:29.672Z,1.00
2018-07-26T13:46:57.734Z,1.00
2018-07-26T13:49:26.096Z,1.00
2018-07-26T13:51:54.178Z,1.00
2018-07-26T13:54:22.251Z,1.00
2018-07-26T13:56:50.319Z,1.00
2018-07-26T13:59:18.392Z,1.00
2018-07-26T14:01:46.465Z,1.00
2018-07-26T14:04:14.736Z,1.00
2018-07-26T14:06:42.912Z,1.00
2018-07-26T14:09:12.111Z,1.00
2018-07-26T14:11:40.699Z,1.00
2018-07-26T14:14:08.866Z,1.00
2018-07-26T14:16:37.046Z,1.00
2018-07-26T14:19:05.671Z,1.00
2018-07-26T14:21:33.727Z,1.00
2018-07-26T14:24:02.575Z,1.00
2018-07-26T14:26:31.372Z,1.00
2018-07-26T14:28:59.441Z,1.00
2018-07-26T14:31:27.583Z,1.00
2018-07-26T14:33:55.691Z,1.00
2018-07-26T14:36:23.758Z,1.00
2018-07-26T14:38:51.827Z,1.00
2018-07-26T14:41:19.899Z,1.00
2018-07-26T14:43:47.969Z,1.00
2018-07-26T14:46:16.041Z,1.00
2018-07-26T14:48:44.124Z,1.00
2018-07-26T14:51:12.184Z,1.00
2018-07-26T14:53:40.359Z,1.00
2018-07-26T14:56:08.500Z,1.00
2018-07-26T14:58:36.655Z,1.00
2018-07-26T15:01:04.674Z,1.00
2018-07-26T15:03:32.747Z,1.00
2018-07-26T15:06:00.811Z,1.00
2018-07-26T15:08:28.879Z,1.00
2018-07-26T15:10:56.959Z,1.00
2018-07-26T15:13:25.056Z,1.00
2018-07-26T15:15:53.135Z,1.00
2018-07-26T15:18:21.203Z,1.00
2018-07-26T15:20:49.289Z,1.00
2018-07-26T15:23:17.318Z,1.00
2018-07-26T15:25:45.427Z,1.00
2018-07-26T15:28:13.536Z,1.00
2018-07-26T15:30:41.618Z,1.00
2018-07-26T15:33:09.725Z,1.00
2018-07-26T15:35:37.818Z,1.00
2018-07-26T15:38:05.899Z,1.00
2018-07-26T15:40:33.971Z,1.00
2018-07-26T15:43:02.044Z,1.00
2018-07-26T15:45:30.136Z,1.00
2018-07-26T15:47:58.210Z,1.00
2018-07-26T15:50:26.286Z,1.00
2018-07-26T15:52:54.426Z,1.00
2018-07-26T15:55:22.538Z,1.00
2018-07-26T15:57:50.600Z,1.00
2018-07-26T16:00:18.798Z,1.00
2018-07-26T16:02:46.850Z,1.00
2018-07-26T16:05:14.959Z,1.00
2018-07-26T16:07:43.030Z,1.00
2018-07-26T16:10:11.135Z,1.00
2018-07-26T16:12:39.208Z,1.00
2018-07-26T16:15:09.174Z,1.00
2018-07-26T16:17:37.347Z,1.00
2018-07-26T16:20:06.871Z,1.00
2018-07-26T16:22:35.022Z,1.00
2018-07-26T16:25:03.131Z,1.00
2018-07-26T16:27:31.220Z,1.00
2018-07-26T16:29:59.303Z,1.00
2018-07-26T16:32:27.386Z,1.00
2018-07-26T16:34:55.451Z,1.00
2018-07-26T16:37:23.507Z,1.00
2018-07-26T16:39:51.663Z,1.00
2018-07-26T16:42:19.899Z,1.00
2018-07-26T16:44:47.976Z,1.00
2018-07-26T16:47:16.071Z,1.00
2018-07-26T16:49:44.145Z,1.00
2018-07-26T16:52:12.216Z,1.00
2018-07-26T16:54:40.352Z,1.00
2018-07-26T16:57:08.454Z,1.00
2018-07-26T16:59:36.592Z,1.00
2018-07-26T17:02:04.686Z,1.00
2018-07-26T17:04:32.757Z,1.00
2018-07-26T17:07:00.862Z,1.00
2018-07-26T17:09:28.936Z,1.00
2018-07-26T17:11:57.016Z,1.00
2018-07-26T17:14:25.095Z,1.00
2018-07-26T17:16:53.151Z,1.00
2018-07-26T17:19:21.219Z,1.00
2018-07-26T17:21:49.323Z,1.00
2018-07-26T17:24:17.374Z,1.00
2018-07-26T17:26:45.468Z,1.00
2018-07-26T17:29:13.679Z,1.00
2018-07-26T17:31:41.578Z,1.00
2018-07-26T17:34:09.721Z,1.00
2018-07-26T17:36:37.783Z,1.00
2018-07-26T17:39:07.444Z,1.00
2018-07-26T17:41:35.500Z,1.00
2018-07-26T17:44:03.555Z,1.00
2018-07-26T17:46:31.654Z,1.00
2018-07-26T17:48:59.797Z,1.00
2018-07-26T17:51:27.883Z,1.00
2018-07-26T17:53:55.983Z,1.00
2018-07-26T17:56:24.019Z,1.00
2018-07-26T17:58:52.374Z,1.00
2018-07-26T18:01:20.455Z,1.00
2018-07-26T18:03:48.695Z,1.00
2018-07-26T18:06:16.768Z,1.00
2018-07-26T18:08:44.841Z,1.00
2018-07-26T18:11:12.947Z,1.00
2018-07-26T18:13:41.039Z,1.00
2018-07-26T18:16:09.143Z,1.00
2018-07-26T18:18:37.230Z,1.00
2018-07-26T18:21:05.308Z,1.00
2018-07-26T18:23:33.396Z,1.00
2018-07-26T18:26:01.517Z,1.00
2018-07-26T18:28:29.618Z,1.00
2018-07-26T18:30:57.700Z,1.00
2018-07-26T18:33:25.791Z,1.00
2018-07-26T18:35:53.884Z,1.00
2018-07-26T18:38:22.007Z,1.00
2018-07-26T18:40:50.009Z,1.00
2018-07-26T18:43:18.460Z,2.00
2018-07-26T18:45:46.574Z,1.40
2018-07-26T18:48:14.663Z,2.40
2018-07-26T18:50:42.757Z,3.30
2018-07-26T18:53:10.824Z,2.80
2018-07-26T18:55:38.934Z,1.80
2018-07-26T18:58:06.995Z,2.80
2018-07-26T19:00:35.052Z,2.20
2018-07-26T19:03:03.159Z,2.90
2018-07-26T19:05:31.278Z,2.70
2018-07-26T19:07:59.359Z,2.00
2018-07-26T19:10:27.474Z,2.70
2018-07-26T19:12:55.565Z,4.50
2018-07-26T19:15:23.661Z,3.70
2018-07-26T19:17:51.719Z,3.60
2018-07-26T19:20:19.810Z,3.70
2018-07-26T19:22:47.907Z,4.60
2018-07-26T19:25:15.978Z,4.90
2018-07-26T19:27:44.029Z,6.30
2018-07-26T19:30:13.677Z,6.90
2018-07-26T19:32:41.793Z,6.90
2018-07-26T19:35:10.277Z,7.30
2018-07-26T19:37:38.343Z,8.00
2018-07-26T19:40:07.546Z,8.80
2018-07-26T19:42:35.721Z,9.10
2018-07-26T19:45:04.500Z,9.40
2018-07-26T19:47:32.587Z,9.50
2018-07-26T19:50:00.683Z,9.10
2018-07-26T19:52:28.811Z,9.30
2018-07-26T19:54:56.935Z,9.60
2018-07-26T19:57:25.039Z,10.50
2018-07-26T19:59:53.127Z,10.40
2018-07-26T20:02:21.200Z,10.90
2018-07-26T20:04:49.272Z,11.10
2018-07-26T20:07:17.350Z,11.10
2018-07-26T20:09:45.424Z,11.20
2018-07-26T20:12:13.531Z,11.70
2018-07-26T20:14:41.584Z,12.10
2018-07-26T20:17:09.698Z,12.70
2018-07-26T20:19:37.771Z,12.60
2018-07-26T20:22:05.876Z,13.10
2018-07-26T20:24:33.968Z,13.10
2018-07-26T20:27:02.095Z,13.60
2018-07-26T20:29:30.151Z,14.90
2018-07-26T20:31:58.266Z,14.50
2018-07-26T20:34:28.066Z,14.60
2018-07-26T20:36:56.141Z,15.40
2018-07-26T20:39:24.203Z,15.50
2018-07-26T20:41:52.270Z,15.60
2018-07-26T20:44:20.390Z,16.00
2018-07-26T20:46:48.462Z,16.50
2018-07-26T20:49:16.572Z,16.70
2018-07-26T20:51:44.643Z,17.00
2018-07-26T20:54:12.682Z,16.80
2018-07-26T20:56:40.785Z,16.90
2018-07-26T20:59:08.888Z,17.00
2018-07-26T21:01:36.951Z,17.40
2018-07-26T21:04:05.217Z,17.50
2018-07-26T21:06:33.303Z,18.40
2018-07-26T21:09:01.371Z,18.30
2018-07-26T21:11:29.492Z,18.10
2018-07-26T21:13:57.536Z,18.50
2018-07-26T21:16:25.624Z,18.00
2018-07-26T21:18:53.687Z,18.60
2018-07-26T21:21:21.765Z,19.00
2018-07-26T21:23:49.855Z,19.80
2018-07-26T21:26:17.935Z,19.70
2018-07-26T21:28:46.007Z,20.00
2018-07-26T21:31:14.123Z,20.00
2018-07-26T21:33:42.194Z,20.40
2018-07-26T21:36:10.279Z,20.40
2018-07-26T21:38:38.363Z,20.60
2018-07-26T21:42:09.415Z,21.10
2018-07-26T21:44:37.566Z,21.50
2018-07-26T21:47:05.593Z,22.20
2018-07-26T21:49:33.696Z,22.80
2018-07-26T21:52:01.779Z,22.80
2018-07-26T21:54:29.848Z,23.40
2018-07-26T21:56:57.919Z,23.90
2018-07-26T21:59:26.074Z,23.90
2018-07-26T22:01:54.160Z,24.30
2018-07-26T22:04:22.223Z,24.70
2018-07-26T22:06:50.320Z,24.70
2018-07-26T22:09:18.375Z,24.50
2018-07-26T22:11:46.451Z,25.00
2018-07-26T22:14:14.578Z,24.80
2018-07-26T22:16:42.665Z,25.10
2018-07-26T22:19:10.734Z,24.70
2018-07-26T22:21:38.919Z,24.90
2018-07-26T22:26:36.039Z,25.90
2018-07-26T22:29:04.135Z,25.80
2018-07-26T22:31:32.240Z,26.10
2018-07-26T22:34:00.313Z,25.90
2018-07-26T22:36:28.383Z,26.60
2018-07-26T22:38:56.459Z,26.90
2018-07-26T22:41:24.523Z,26.80
2018-07-26T22:43:52.604Z,26.70
2018-07-26T22:46:20.694Z,26.70
2018-07-26T22:48:48.762Z,27.10
2018-07-26T22:51:16.890Z,27.40
2018-07-26T22:53:44.971Z,27.70
2018-07-26T22:56:13.050Z,28.10
2018-07-26T22:58:41.110Z,29.40
2018-07-26T23:01:09.199Z,29.50
2018-07-26T23:03:37.288Z,28.80
2018-07-26T23:06:05.358Z,29.20
2018-07-26T23:08:33.488Z,28.80
2018-07-26T23:11:01.553Z,29.10
2018-07-26T23:13:29.626Z,28.90
2018-07-26T23:15:57.732Z,29.60
2018-07-26T23:18:25.784Z,29.20
2018-07-26T23:20:53.855Z,29.50
2018-07-26T23:23:21.930Z,29.90
2018-07-26T23:25:49.991Z,29.60
2018-07-26T23:28:18.141Z,29.70
2018-07-26T23:30:46.252Z,29.80
2018-07-26T23:33:14.319Z,30.30
2018-07-26T23:35:42.443Z,30.20
2018-07-26T23:38:10.533Z,30.30
2018-07-26T23:40:38.628Z,30.60
2018-07-26T23:43:06.697Z,31.40
2018-07-26T23:45:34.771Z,31.00
2018-07-26T23:48:02.860Z,31.30
2018-07-26T23:50:30.937Z,31.70
2018-07-26T23:52:59.005Z,31.70
2018-07-26T23:55:27.131Z,31.60
2018-07-26T23:57:55.220Z,31.70
